sensor_id;sensor_type;location;lat;lon;timestamp;P1;durP1;ratioP1;P2;durP2;ratioP2
209;SDS011;90;48.810;9.120;2023-03-24T00:02:09;3.90;;;3.70;;
209;SDS011;90;48.810;9.120;2023-03-24T00:04:37;5.80;;;5.00;;
209;SDS011;90;48.810;9.120;2023-03-24T00:07:06;4.30;;;4.00;;
209;SDS011;90;48.810;9.120;2023-03-24T00:09:34;5.17;;;4.80;;
209;SDS011;90;48.810;9.120;2023-03-24T00:12:01;5.10;;;4.90;;
209;SDS011;90;48.810;9.120;2023-03-24T00:14:28;5.70;;;4.57;;
209;SDS011;90;48.810;9.120;2023-03-24T00:16:55;4.27;;;4.00;;
209;SDS011;90;48.810;9.120;2023-03-24T00:19:23;4.40;;;4.10;;
209;SDS011;90;48.810;9.120;2023-03-24T00:21:50;4.90;;;4.03;;
209;SDS011;90;48.810;9.120;2023-03-24T00:24:19;6.00;;;4.47;;
209;SDS011;90;48.810;9.120;2023-03-24T00:26:48;4.67;;;4.37;;
209;SDS011;90;48.810;9.120;2023-03-24T00:29:15;5.23;;;4.53;;
209;SDS011;90;48.810;9.120;2023-03-24T00:31:42;5.03;;;4.47;;
209;SDS011;90;48.810;9.120;2023-03-24T00:34:09;4.40;;;4.10;;
209;SDS011;90;48.810;9.120;2023-03-24T00:36:37;5.53;;;4.60;;
209;SDS011;90;48.810;9.120;2023-03-24T00:39:04;7.53;;;4.67;;
209;SDS011;90;48.810;9.120;2023-03-24T00:41:31;5.40;;;4.13;;
209;SDS011;90;48.810;9.120;2023-03-24T00:43:59;6.17;;;4.47;;
209;SDS011;90;48.810;9.120;2023-03-24T00:46:29;6.47;;;4.57;;
209;SDS011;90;48.810;9.120;2023-03-24T00:48:57;4.00;;;3.80;;
209;SDS011;90;48.810;9.120;2023-03-24T00:51:30;4.70;;;4.40;;
209;SDS011;90;48.810;9.120;2023-03-24T00:53:58;7.20;;;4.40;;
209;SDS011;90;48.810;9.120;2023-03-24T00:56:26;4.30;;;3.90;;
209;SDS011;90;48.810;9.120;2023-03-24T00:58:55;4.30;;;4.07;;
209;SDS011;90;48.810;9.120;2023-03-24T01:01:25;6.77;;;4.10;;
209;SDS011;90;48.810;9.120;2023-03-24T01:03:53;4.30;;;4.00;;
209;SDS011;90;48.810;9.120;2023-03-24T01:06:21;4.10;;;3.90;;
209;SDS011;90;48.810;9.120;2023-03-24T01:08:49;5.60;;;4.30;;
209;SDS011;90;48.810;9.120;2023-03-24T01:11:18;5.00;;;4.70;;
209;SDS011;90;48.810;9.120;2023-03-24T01:13:48;4.03;;;3.83;;
209;SDS011;90;48.810;9.120;2023-03-24T01:16:16;5.00;;;4.10;;
209;SDS011;90;48.810;9.120;2023-03-24T01:18:44;5.13;;;4.27;;
209;SDS011;90;48.810;9.120;2023-03-24T01:21:11;5.10;;;4.37;;
209;SDS011;90;48.810;9.120;2023-03-24T01:23:38;5.70;;;4.13;;
209;SDS011;90;48.810;9.120;2023-03-24T01:26:07;4.77;;;4.07;;
209;SDS011;90;48.810;9.120;2023-03-24T01:28:35;5.30;;;4.10;;
209;SDS011;90;48.810;9.120;2023-03-24T01:31:05;4.17;;;3.43;;
209;SDS011;90;48.810;9.120;2023-03-24T01:33:34;4.73;;;3.93;;
209;SDS011;90;48.810;9.120;2023-03-24T01:36:02;5.27;;;3.80;;
209;SDS011;90;48.810;9.120;2023-03-24T01:38:30;4.70;;;3.50;;
209;SDS011;90;48.810;9.120;2023-03-24T01:40:57;4.53;;;3.83;;
209;SDS011;90;48.810;9.120;2023-03-24T01:43:24;5.20;;;3.90;;
209;SDS011;90;48.810;9.120;2023-03-24T01:46:00;4.40;;;4.03;;
209;SDS011;90;48.810;9.120;2023-03-24T01:48:33;5.27;;;3.97;;
209;SDS011;90;48.810;9.120;2023-03-24T01:51:05;3.80;;;3.60;;
209;SDS011;90;48.810;9.120;2023-03-24T01:53:35;5.27;;;3.80;;
209;SDS011;90;48.810;9.120;2023-03-24T01:56:05;7.87;;;4.10;;
209;SDS011;90;48.810;9.120;2023-03-24T01:58:33;4.83;;;4.10;;
209;SDS011;90;48.810;9.120;2023-03-24T02:01:02;3.60;;;3.30;;
209;SDS011;90;48.810;9.120;2023-03-24T02:03:29;3.90;;;3.70;;
209;SDS011;90;48.810;9.120;2023-03-24T02:05:58;3.57;;;3.40;;
209;SDS011;90;48.810;9.120;2023-03-24T02:08:29;6.10;;;4.00;;
209;SDS011;90;48.810;9.120;2023-03-24T02:10:59;7.43;;;3.60;;
209;SDS011;90;48.810;9.120;2023-03-24T02:13:27;5.73;;;4.33;;
209;SDS011;90;48.810;9.120;2023-03-24T02:15:57;3.93;;;3.47;;
209;SDS011;90;48.810;9.120;2023-03-24T02:18:39;4.13;;;3.60;;
209;SDS011;90;48.810;9.120;2023-03-24T02:21:18;7.00;;;3.83;;
209;SDS011;90;48.810;9.120;2023-03-24T02:24:36;3.50;;;3.30;;
209;SDS011;90;48.810;9.120;2023-03-24T02:27:22;4.00;;;3.80;;
209;SDS011;90;48.810;9.120;2023-03-24T02:30:19;3.87;;;3.47;;
209;SDS011;90;48.810;9.120;2023-03-24T02:42:22;4.07;;;3.87;;
209;SDS011;90;48.810;9.120;2023-03-24T02:44:56;4.80;;;3.60;;
209;SDS011;90;48.810;9.120;2023-03-24T02:47:35;6.13;;;3.40;;
209;SDS011;90;48.810;9.120;2023-03-24T02:50:12;3.47;;;3.27;;
209;SDS011;90;48.810;9.120;2023-03-24T02:52:45;3.80;;;3.53;;
209;SDS011;90;48.810;9.120;2023-03-24T02:55:15;3.30;;;3.10;;
209;SDS011;90;48.810;9.120;2023-03-24T02:57:48;3.90;;;3.53;;
209;SDS011;90;48.810;9.120;2023-03-24T03:00:20;4.40;;;3.80;;
209;SDS011;90;48.810;9.120;2023-03-24T03:02:55;4.93;;;3.90;;
209;SDS011;90;48.810;9.120;2023-03-24T03:05:27;5.13;;;3.57;;
209;SDS011;90;48.810;9.120;2023-03-24T03:07:58;4.00;;;3.53;;
209;SDS011;90;48.810;9.120;2023-03-24T03:10:28;4.50;;;3.40;;
209;SDS011;90;48.810;9.120;2023-03-24T03:12:57;7.20;;;3.90;;
209;SDS011;90;48.810;9.120;2023-03-24T03:15:28;5.40;;;3.70;;
209;SDS011;90;48.810;9.120;2023-03-24T03:18:00;4.73;;;3.70;;
209;SDS011;90;48.810;9.120;2023-03-24T03:20:33;4.43;;;3.90;;
209;SDS011;90;48.810;9.120;2023-03-24T03:23:07;4.47;;;3.73;;
209;SDS011;90;48.810;9.120;2023-03-24T03:25:38;4.53;;;3.27;;
209;SDS011;90;48.810;9.120;2023-03-24T03:28:13;3.70;;;3.50;;
209;SDS011;90;48.810;9.120;2023-03-24T03:30:45;6.60;;;3.73;;
209;SDS011;90;48.810;9.120;2023-03-24T03:33:16;4.20;;;3.50;;
209;SDS011;90;48.810;9.120;2023-03-24T03:35:50;3.87;;;3.50;;
209;SDS011;90;48.810;9.120;2023-03-24T03:38:19;5.97;;;3.80;;
209;SDS011;90;48.810;9.120;2023-03-24T03:40:51;3.73;;;3.10;;
209;SDS011;90;48.810;9.120;2023-03-24T03:43:21;3.93;;;3.73;;
209;SDS011;90;48.810;9.120;2023-03-24T03:45:48;4.00;;;3.40;;
209;SDS011;90;48.810;9.120;2023-03-24T03:48:15;3.67;;;3.47;;
209;SDS011;90;48.810;9.120;2023-03-24T03:50:42;4.50;;;3.70;;
209;SDS011;90;48.810;9.120;2023-03-24T03:53:10;3.77;;;3.47;;
209;SDS011;90;48.810;9.120;2023-03-24T03:55:40;5.30;;;3.90;;
209;SDS011;90;48.810;9.120;2023-03-24T03:58:07;6.20;;;3.70;;
209;SDS011;90;48.810;9.120;2023-03-24T04:00:35;3.60;;;3.40;;
209;SDS011;90;48.810;9.120;2023-03-24T04:03:09;5.03;;;3.30;;
209;SDS011;90;48.810;9.120;2023-03-24T04:05:48;4.87;;;3.57;;
209;SDS011;90;48.810;9.120;2023-03-24T04:08:27;4.57;;;3.77;;
209;SDS011;90;48.810;9.120;2023-03-24T04:11:11;4.70;;;3.38;;
209;SDS011;90;48.810;9.120;2023-03-24T04:13:53;3.90;;;3.77;;
209;SDS011;90;48.810;9.120;2023-03-24T04:16:34;5.53;;;3.80;;
209;SDS011;90;48.810;9.120;2023-03-24T04:19:10;3.67;;;3.47;;
209;SDS011;90;48.810;9.120;2023-03-24T04:21:54;3.50;;;3.30;;
209;SDS011;90;48.810;9.120;2023-03-24T04:24:30;4.30;;;3.60;;
209;SDS011;90;48.810;9.120;2023-03-24T04:27:05;4.77;;;3.90;;
209;SDS011;90;48.810;9.120;2023-03-24T04:29:37;5.07;;;3.50;;
209;SDS011;90;48.810;9.120;2023-03-24T04:32:12;6.20;;;3.70;;
209;SDS011;90;48.810;9.120;2023-03-24T04:34:44;4.30;;;3.60;;
209;SDS011;90;48.810;9.120;2023-03-24T04:37:18;7.30;;;3.67;;
209;SDS011;90;48.810;9.120;2023-03-24T04:39:49;3.83;;;3.63;;
209;SDS011;90;48.810;9.120;2023-03-24T04:42:24;3.90;;;3.67;;
209;SDS011;90;48.810;9.120;2023-03-24T04:44:52;4.03;;;3.60;;
209;SDS011;90;48.810;9.120;2023-03-24T04:47:23;3.63;;;3.33;;
209;SDS011;90;48.810;9.120;2023-03-24T04:49:58;3.07;;;2.87;;
209;SDS011;90;48.810;9.120;2023-03-24T04:52:26;6.60;;;3.60;;
209;SDS011;90;48.810;9.120;2023-03-24T04:54:53;4.67;;;3.20;;
209;SDS011;90;48.810;9.120;2023-03-24T04:57:20;3.43;;;3.30;;
209;SDS011;90;48.810;9.120;2023-03-24T04:59:47;3.27;;;3.10;;
209;SDS011;90;48.810;9.120;2023-03-24T05:02:13;3.70;;;3.50;;
209;SDS011;90;48.810;9.120;2023-03-24T05:04:42;3.70;;;3.50;;
209;SDS011;90;48.810;9.120;2023-03-24T05:07:09;4.33;;;3.60;;
209;SDS011;90;48.810;9.120;2023-03-24T05:09:35;3.50;;;3.30;;
209;SDS011;90;48.810;9.120;2023-03-24T05:12:02;3.57;;;3.33;;
209;SDS011;90;48.810;9.120;2023-03-24T05:14:29;11.73;;;3.37;;
209;SDS011;90;48.810;9.120;2023-03-24T05:16:55;3.80;;;3.57;;
209;SDS011;90;48.810;9.120;2023-03-24T05:19:22;3.47;;;3.27;;
209;SDS011;90;48.810;9.120;2023-03-24T05:21:50;3.40;;;3.20;;
209;SDS011;90;48.810;9.120;2023-03-24T05:24:18;3.63;;;3.53;;
209;SDS011;90;48.810;9.120;2023-03-24T05:26:44;4.40;;;3.50;;
209;SDS011;90;48.810;9.120;2023-03-24T05:29:11;10.63;;;4.10;;
209;SDS011;90;48.810;9.120;2023-03-24T05:31:38;3.90;;;3.70;;
209;SDS011;90;48.810;9.120;2023-03-24T05:34:05;4.17;;;3.93;;
209;SDS011;90;48.810;9.120;2023-03-24T05:36:32;5.40;;;3.70;;
209;SDS011;90;48.810;9.120;2023-03-24T05:39:00;5.37;;;3.77;;
209;SDS011;90;48.810;9.120;2023-03-24T05:41:26;3.87;;;3.67;;
209;SDS011;90;48.810;9.120;2023-03-24T05:43:53;4.50;;;3.70;;
209;SDS011;90;48.810;9.120;2023-03-24T05:46:20;3.73;;;3.53;;
209;SDS011;90;48.810;9.120;2023-03-24T05:48:46;4.00;;;3.80;;
209;SDS011;90;48.810;9.120;2023-03-24T05:51:13;4.57;;;3.73;;
209;SDS011;90;48.810;9.120;2023-03-24T05:53:40;4.70;;;4.40;;
209;SDS011;90;48.810;9.120;2023-03-24T05:56:08;4.87;;;4.13;;
209;SDS011;90;48.810;9.120;2023-03-24T05:58:36;5.10;;;3.93;;
209;SDS011;90;48.810;9.120;2023-03-24T06:01:07;3.70;;;3.50;;
209;SDS011;90;48.810;9.120;2023-03-24T06:03:42;3.67;;;3.47;;
209;SDS011;90;48.810;9.120;2023-03-24T06:06:09;3.90;;;3.43;;
209;SDS011;90;48.810;9.120;2023-03-24T06:08:41;3.83;;;3.70;;
209;SDS011;90;48.810;9.120;2023-03-24T06:11:10;4.73;;;3.70;;
209;SDS011;90;48.810;9.120;2023-03-24T06:13:37;3.63;;;3.33;;
209;SDS011;90;48.810;9.120;2023-03-24T06:16:04;4.30;;;4.00;;
209;SDS011;90;48.810;9.120;2023-03-24T06:18:31;4.43;;;4.17;;
209;SDS011;90;48.810;9.120;2023-03-24T06:20:58;4.60;;;4.30;;
209;SDS011;90;48.810;9.120;2023-03-24T06:23:26;6.10;;;4.27;;
209;SDS011;90;48.810;9.120;2023-03-24T06:25:54;5.40;;;4.23;;
209;SDS011;90;48.810;9.120;2023-03-24T06:28:23;4.70;;;4.00;;
209;SDS011;90;48.810;9.120;2023-03-24T06:30:54;6.73;;;4.30;;
209;SDS011;90;48.810;9.120;2023-03-24T06:33:22;5.07;;;4.37;;
209;SDS011;90;48.810;9.120;2023-03-24T06:35:49;9.67;;;4.40;;
209;SDS011;90;48.810;9.120;2023-03-24T06:38:16;5.77;;;5.10;;
209;SDS011;90;48.810;9.120;2023-03-24T06:40:44;6.00;;;4.60;;
209;SDS011;90;48.810;9.120;2023-03-24T06:43:10;4.97;;;3.80;;
209;SDS011;90;48.810;9.120;2023-03-24T06:45:38;4.50;;;4.20;;
209;SDS011;90;48.810;9.120;2023-03-24T06:48:05;6.03;;;4.20;;
209;SDS011;90;48.810;9.120;2023-03-24T06:50:32;8.27;;;4.60;;
209;SDS011;90;48.810;9.120;2023-03-24T06:53:02;6.83;;;4.27;;
209;SDS011;90;48.810;9.120;2023-03-24T06:55:29;4.63;;;4.13;;
209;SDS011;90;48.810;9.120;2023-03-24T06:57:56;6.13;;;4.37;;
209;SDS011;90;48.810;9.120;2023-03-24T07:00:23;4.33;;;4.07;;
209;SDS011;90;48.810;9.120;2023-03-24T07:02:51;5.00;;;4.70;;
209;SDS011;90;48.810;9.120;2023-03-24T07:05:17;4.23;;;3.80;;
209;SDS011;90;48.810;9.120;2023-03-24T07:07:44;4.50;;;4.20;;
209;SDS011;90;48.810;9.120;2023-03-24T07:10:11;4.10;;;3.90;;
209;SDS011;90;48.810;9.120;2023-03-24T07:12:38;4.37;;;4.10;;
209;SDS011;90;48.810;9.120;2023-03-24T07:15:06;5.70;;;4.40;;
209;SDS011;90;48.810;9.120;2023-03-24T07:17:33;4.50;;;4.20;;
209;SDS011;90;48.810;9.120;2023-03-24T07:20:01;5.73;;;4.47;;
209;SDS011;90;48.810;9.120;2023-03-24T07:22:33;3.93;;;3.77;;
209;SDS011;90;48.810;9.120;2023-03-24T07:25:00;6.60;;;5.00;;
209;SDS011;90;48.810;9.120;2023-03-24T07:27:28;4.70;;;4.00;;
209;SDS011;90;48.810;9.120;2023-03-24T07:29:56;5.60;;;4.67;;
209;SDS011;90;48.810;9.120;2023-03-24T07:32:23;4.97;;;4.67;;
209;SDS011;90;48.810;9.120;2023-03-24T07:34:50;4.30;;;4.00;;
209;SDS011;90;48.810;9.120;2023-03-24T07:37:18;3.80;;;3.60;;
209;SDS011;90;48.810;9.120;2023-03-24T07:39:45;4.85;;;4.32;;
209;SDS011;90;48.810;9.120;2023-03-24T07:42:12;4.70;;;4.47;;
209;SDS011;90;48.810;9.120;2023-03-24T07:44:39;4.47;;;4.17;;
209;SDS011;90;48.810;9.120;2023-03-24T07:47:06;5.13;;;4.27;;
209;SDS011;90;48.810;9.120;2023-03-24T07:49:33;5.77;;;4.23;;
209;SDS011;90;48.810;9.120;2023-03-24T07:51:59;5.53;;;4.73;;
209;SDS011;90;48.810;9.120;2023-03-24T07:54:31;7.50;;;4.80;;
209;SDS011;90;48.810;9.120;2023-03-24T07:56:58;4.60;;;4.30;;
209;SDS011;90;48.810;9.120;2023-03-24T07:59:27;10.37;;;4.90;;
209;SDS011;90;48.810;9.120;2023-03-24T08:01:54;5.47;;;4.47;;
209;SDS011;90;48.810;9.120;2023-03-24T08:04:21;6.73;;;4.13;;
209;SDS011;90;48.810;9.120;2023-03-24T08:06:48;5.60;;;4.60;;
209;SDS011;90;48.810;9.120;2023-03-24T08:09:14;7.97;;;4.23;;
209;SDS011;90;48.810;9.120;2023-03-24T08:11:43;4.67;;;4.37;;
209;SDS011;90;48.810;9.120;2023-03-24T08:14:09;4.70;;;4.37;;
209;SDS011;90;48.810;9.120;2023-03-24T08:16:36;4.73;;;4.43;;
209;SDS011;90;48.810;9.120;2023-03-24T08:19:03;4.63;;;4.37;;
209;SDS011;90;48.810;9.120;2023-03-24T08:21:30;5.27;;;4.23;;
209;SDS011;90;48.810;9.120;2023-03-24T08:23:57;4.53;;;4.20;;
209;SDS011;90;48.810;9.120;2023-03-24T08:26:24;4.83;;;4.47;;
209;SDS011;90;48.810;9.120;2023-03-24T08:28:52;5.83;;;4.60;;
209;SDS011;90;48.810;9.120;2023-03-24T08:31:19;4.80;;;4.37;;
209;SDS011;90;48.810;9.120;2023-03-24T08:33:46;5.23;;;4.97;;
209;SDS011;90;48.810;9.120;2023-03-24T08:36:13;6.33;;;4.73;;
209;SDS011;90;48.810;9.120;2023-03-24T08:38:40;4.77;;;4.00;;
209;SDS011;90;48.810;9.120;2023-03-24T08:41:06;5.10;;;4.70;;
209;SDS011;90;48.810;9.120;2023-03-24T08:43:34;5.03;;;4.33;;
209;SDS011;90;48.810;9.120;2023-03-24T08:46:05;4.83;;;4.53;;
209;SDS011;90;48.810;9.120;2023-03-24T08:48:33;4.63;;;4.07;;
209;SDS011;90;48.810;9.120;2023-03-24T08:51:08;5.80;;;4.17;;
209;SDS011;90;48.810;9.120;2023-03-24T08:53:36;4.40;;;4.03;;
209;SDS011;90;48.810;9.120;2023-03-24T08:56:02;5.50;;;4.30;;
209;SDS011;90;48.810;9.120;2023-03-24T08:58:30;5.73;;;4.43;;
209;SDS011;90;48.810;9.120;2023-03-24T09:00:56;4.43;;;4.20;;
209;SDS011;90;48.810;9.120;2023-03-24T09:03:25;4.60;;;4.30;;
209;SDS011;90;48.810;9.120;2023-03-24T09:05:53;4.10;;;3.90;;
209;SDS011;90;48.810;9.120;2023-03-24T09:08:22;4.93;;;4.00;;
209;SDS011;90;48.810;9.120;2023-03-24T09:10:49;4.10;;;3.50;;
209;SDS011;90;48.810;9.120;2023-03-24T09:13:17;5.30;;;4.13;;
209;SDS011;90;48.810;9.120;2023-03-24T09:15:44;4.10;;;3.90;;
209;SDS011;90;48.810;9.120;2023-03-24T09:18:12;4.90;;;4.03;;
209;SDS011;90;48.810;9.120;2023-03-24T09:20:42;4.40;;;3.80;;
209;SDS011;90;48.810;9.120;2023-03-24T09:23:09;4.50;;;3.90;;
209;SDS011;90;48.810;9.120;2023-03-24T09:25:36;3.90;;;3.70;;
209;SDS011;90;48.810;9.120;2023-03-24T09:28:03;3.97;;;3.77;;
209;SDS011;90;48.810;9.120;2023-03-24T09:30:31;4.00;;;3.80;;
209;SDS011;90;48.810;9.120;2023-03-24T09:32:58;4.50;;;4.20;;
209;SDS011;90;48.810;9.120;2023-03-24T09:35:25;4.10;;;3.70;;
209;SDS011;90;48.810;9.120;2023-03-24T09:37:54;3.83;;;3.70;;
209;SDS011;90;48.810;9.120;2023-03-24T09:40:23;4.60;;;3.90;;
209;SDS011;90;48.810;9.120;2023-03-24T09:42:52;4.03;;;3.77;;
209;SDS011;90;48.810;9.120;2023-03-24T09:45:23;7.00;;;3.90;;
209;SDS011;90;48.810;9.120;2023-03-24T09:47:54;5.40;;;4.10;;
209;SDS011;90;48.810;9.120;2023-03-24T09:50:26;4.23;;;3.97;;
209;SDS011;90;48.810;9.120;2023-03-24T09:52:57;3.40;;;3.20;;
209;SDS011;90;48.810;9.120;2023-03-24T09:55:27;4.53;;;3.60;;
209;SDS011;90;48.810;9.120;2023-03-24T09:57:55;4.60;;;3.80;;
209;SDS011;90;48.810;9.120;2023-03-24T10:00:27;3.40;;;3.20;;
209;SDS011;90;48.810;9.120;2023-03-24T10:02:57;3.60;;;3.40;;
209;SDS011;90;48.810;9.120;2023-03-24T10:05:28;3.60;;;3.40;;
209;SDS011;90;48.810;9.120;2023-03-24T10:08:02;4.30;;;3.53;;
209;SDS011;90;48.810;9.120;2023-03-24T10:10:35;7.20;;;3.75;;
209;SDS011;90;48.810;9.120;2023-03-24T10:13:11;3.50;;;3.30;;
209;SDS011;90;48.810;9.120;2023-03-24T10:15:46;3.70;;;3.20;;
209;SDS011;90;48.810;9.120;2023-03-24T10:18:22;3.53;;;3.33;;
209;SDS011;90;48.810;9.120;2023-03-24T10:20:57;4.27;;;3.80;;
209;SDS011;90;48.810;9.120;2023-03-24T10:23:33;4.10;;;3.20;;
209;SDS011;90;48.810;9.120;2023-03-24T10:26:04;3.70;;;3.50;;
209;SDS011;90;48.810;9.120;2023-03-24T10:28:43;5.83;;;3.50;;
209;SDS011;90;48.810;9.120;2023-03-24T10:31:15;3.90;;;3.00;;
209;SDS011;90;48.810;9.120;2023-03-24T10:33:44;3.33;;;3.17;;
209;SDS011;90;48.810;9.120;2023-03-24T10:36:16;2.97;;;2.80;;
209;SDS011;90;48.810;9.120;2023-03-24T10:38:46;3.20;;;3.00;;
209;SDS011;90;48.810;9.120;2023-03-24T10:41:14;2.97;;;2.77;;
209;SDS011;90;48.810;9.120;2023-03-24T10:43:43;3.20;;;3.10;;
209;SDS011;90;48.810;9.120;2023-03-24T10:46:14;2.73;;;2.60;;
209;SDS011;90;48.810;9.120;2023-03-24T10:48:43;4.20;;;2.93;;
209;SDS011;90;48.810;9.120;2023-03-24T10:51:15;6.60;;;2.87;;
209;SDS011;90;48.810;9.120;2023-03-24T10:53:44;3.33;;;2.70;;
209;SDS011;90;48.810;9.120;2023-03-24T10:56:17;2.70;;;2.50;;
209;SDS011;90;48.810;9.120;2023-03-24T10:59:01;2.80;;;2.60;;
209;SDS011;90;48.810;9.120;2023-03-24T11:01:31;2.43;;;2.27;;
209;SDS011;90;48.810;9.120;2023-03-24T11:03:59;3.13;;;2.97;;
209;SDS011;90;48.810;9.120;2023-03-24T11:06:31;3.63;;;2.57;;
209;SDS011;90;48.810;9.120;2023-03-24T11:09:06;2.40;;;2.20;;
209;SDS011;90;48.810;9.120;2023-03-24T11:11:38;2.60;;;2.50;;
209;SDS011;90;48.810;9.120;2023-03-24T11:14:16;2.60;;;2.40;;
209;SDS011;90;48.810;9.120;2023-03-24T11:16:47;2.77;;;2.57;;
209;SDS011;90;48.810;9.120;2023-03-24T11:19:19;2.60;;;2.40;;
209;SDS011;90;48.810;9.120;2023-03-24T11:21:50;2.77;;;2.57;;
209;SDS011;90;48.810;9.120;2023-03-24T11:24:21;2.90;;;2.80;;
209;SDS011;90;48.810;9.120;2023-03-24T11:26:56;3.70;;;2.63;;
209;SDS011;90;48.810;9.120;2023-03-24T11:29:26;2.53;;;2.33;;
209;SDS011;90;48.810;9.120;2023-03-24T11:31:55;3.17;;;2.50;;
209;SDS011;90;48.810;9.120;2023-03-24T11:34:23;3.10;;;2.20;;
209;SDS011;90;48.810;9.120;2023-03-24T11:36:58;3.77;;;2.60;;
209;SDS011;90;48.810;9.120;2023-03-24T11:39:27;2.70;;;2.57;;
209;SDS011;90;48.810;9.120;2023-03-24T11:42:00;2.50;;;2.30;;
209;SDS011;90;48.810;9.120;2023-03-24T11:44:30;2.40;;;2.20;;
209;SDS011;90;48.810;9.120;2023-03-24T11:47:07;2.50;;;2.30;;
209;SDS011;90;48.810;9.120;2023-03-24T11:49:37;2.70;;;2.30;;
209;SDS011;90;48.810;9.120;2023-03-24T11:52:10;2.50;;;2.30;;
209;SDS011;90;48.810;9.120;2023-03-24T11:54:45;2.53;;;2.30;;
209;SDS011;90;48.810;9.120;2023-03-24T11:57:13;2.63;;;2.43;;
209;SDS011;90;48.810;9.120;2023-03-24T11:59:47;2.30;;;2.13;;
209;SDS011;90;48.810;9.120;2023-03-24T12:02:18;2.33;;;2.13;;
209;SDS011;90;48.810;9.120;2023-03-24T12:05:09;2.30;;;2.10;;
209;SDS011;90;48.810;9.120;2023-03-24T12:07:57;2.00;;;1.90;;
209;SDS011;90;48.810;9.120;2023-03-24T12:10:36;2.50;;;2.30;;
209;SDS011;90;48.810;9.120;2023-03-24T12:13:11;3.13;;;2.13;;
209;SDS011;90;48.810;9.120;2023-03-24T12:15:45;2.33;;;2.20;;
209;SDS011;90;48.810;9.120;2023-03-24T12:18:46;2.97;;;2.57;;
209;SDS011;90;48.810;9.120;2023-03-24T12:21:25;2.10;;;1.80;;
209;SDS011;90;48.810;9.120;2023-03-24T12:24:05;2.00;;;1.80;;
209;SDS011;90;48.810;9.120;2023-03-24T12:26:41;2.20;;;1.97;;
209;SDS011;90;48.810;9.120;2023-03-24T12:29:16;2.50;;;1.97;;
209;SDS011;90;48.810;9.120;2023-03-24T12:32:00;1.90;;;1.57;;
209;SDS011;90;48.810;9.120;2023-03-24T12:34:40;1.93;;;1.90;;
209;SDS011;90;48.810;9.120;2023-03-24T12:37:22;1.80;;;1.60;;
209;SDS011;90;48.810;9.120;2023-03-24T12:39:58;1.90;;;1.60;;
209;SDS011;90;48.810;9.120;2023-03-24T12:42:37;3.20;;;2.00;;
209;SDS011;90;48.810;9.120;2023-03-24T12:45:14;2.10;;;1.50;;
209;SDS011;90;48.810;9.120;2023-03-24T12:51:03;2.13;;;1.50;;
209;SDS011;90;48.810;9.120;2023-03-24T12:53:41;2.23;;;1.40;;
209;SDS011;90;48.810;9.120;2023-03-24T12:56:20;2.20;;;1.50;;
209;SDS011;90;48.810;9.120;2023-03-24T12:58:52;2.97;;;1.60;;
209;SDS011;90;48.810;9.120;2023-03-24T13:01:24;2.17;;;1.60;;
209;SDS011;90;48.810;9.120;2023-03-24T13:03:54;2.23;;;1.40;;
209;SDS011;90;48.810;9.120;2023-03-24T13:06:26;1.80;;;1.40;;
209;SDS011;90;48.810;9.120;2023-03-24T13:09:02;3.60;;;1.93;;
209;SDS011;90;48.810;9.120;2023-03-24T13:11:37;2.10;;;1.50;;
209;SDS011;90;48.810;9.120;2023-03-24T13:14:11;2.10;;;1.40;;
209;SDS011;90;48.810;9.120;2023-03-24T13:16:44;2.00;;;1.60;;
209;SDS011;90;48.810;9.120;2023-03-24T13:19:15;2.00;;;1.60;;
209;SDS011;90;48.810;9.120;2023-03-24T13:21:45;2.92;;;1.33;;
209;SDS011;90;48.810;9.120;2023-03-24T13:24:14;2.17;;;1.90;;
209;SDS011;90;48.810;9.120;2023-03-24T13:26:45;1.90;;;1.60;;
209;SDS011;90;48.810;9.120;2023-03-24T13:29:26;5.30;;;1.50;;
209;SDS011;90;48.810;9.120;2023-03-24T13:32:15;1.90;;;1.50;;
209;SDS011;90;48.810;9.120;2023-03-24T13:34:52;2.30;;;1.40;;
209;SDS011;90;48.810;9.120;2023-03-24T13:37:22;2.00;;;1.47;;
209;SDS011;90;48.810;9.120;2023-03-24T13:39:54;2.40;;;1.33;;
209;SDS011;90;48.810;9.120;2023-03-24T13:42:26;1.90;;;1.23;;
209;SDS011;90;48.810;9.120;2023-03-24T13:44:57;1.90;;;1.30;;
209;SDS011;90;48.810;9.120;2023-03-24T13:47:27;1.97;;;1.63;;
209;SDS011;90;48.810;9.120;2023-03-24T13:50:13;2.73;;;2.00;;
209;SDS011;90;48.810;9.120;2023-03-24T13:52:42;2.50;;;2.30;;
209;SDS011;90;48.810;9.120;2023-03-24T13:55:13;2.70;;;1.90;;
209;SDS011;90;48.810;9.120;2023-03-24T13:57:50;3.87;;;1.90;;
209;SDS011;90;48.810;9.120;2023-03-24T14:00:21;3.67;;;1.70;;
209;SDS011;90;48.810;9.120;2023-03-24T14:02:51;2.93;;;2.07;;
209;SDS011;90;48.810;9.120;2023-03-24T14:05:28;2.97;;;1.90;;
209;SDS011;90;48.810;9.120;2023-03-24T14:08:10;2.77;;;1.77;;
209;SDS011;90;48.810;9.120;2023-03-24T14:10:40;5.13;;;2.00;;
209;SDS011;90;48.810;9.120;2023-03-24T14:18:53;2.80;;;1.80;;
209;SDS011;90;48.810;9.120;2023-03-24T14:21:34;6.50;;;2.10;;
209;SDS011;90;48.810;9.120;2023-03-24T14:24:13;3.03;;;1.90;;
209;SDS011;90;48.810;9.120;2023-03-24T14:26:41;2.13;;;1.83;;
209;SDS011;90;48.810;9.120;2023-03-24T14:29:25;2.37;;;1.60;;
209;SDS011;90;48.810;9.120;2023-03-24T14:32:04;3.20;;;1.77;;
209;SDS011;90;48.810;9.120;2023-03-24T14:34:34;4.83;;;1.50;;
209;SDS011;90;48.810;9.120;2023-03-24T14:37:02;4.10;;;1.90;;
209;SDS011;90;48.810;9.120;2023-03-24T14:39:34;4.80;;;1.60;;
209;SDS011;90;48.810;9.120;2023-03-24T14:48:11;2.07;;;1.77;;
209;SDS011;90;48.810;9.120;2023-03-24T14:50:49;2.00;;;1.70;;
209;SDS011;90;48.810;9.120;2023-03-24T14:53:19;2.00;;;1.70;;
209;SDS011;90;48.810;9.120;2023-03-24T14:55:47;2.43;;;1.60;;
209;SDS011;90;48.810;9.120;2023-03-24T14:58:17;8.60;;;1.70;;
209;SDS011;90;48.810;9.120;2023-03-24T15:00:48;1.93;;;1.70;;
209;SDS011;90;48.810;9.120;2023-03-24T15:03:17;2.00;;;1.50;;
209;SDS011;90;48.810;9.120;2023-03-24T15:05:50;2.73;;;1.80;;
209;SDS011;90;48.810;9.120;2023-03-24T15:08:18;4.30;;;1.70;;
209;SDS011;90;48.810;9.120;2023-03-24T15:10:47;2.50;;;1.57;;
209;SDS011;90;48.810;9.120;2023-03-24T15:16:02;2.20;;;1.70;;
209;SDS011;90;48.810;9.120;2023-03-24T15:18:31;3.30;;;1.70;;
209;SDS011;90;48.810;9.120;2023-03-24T15:21:00;1.90;;;1.30;;
209;SDS011;90;48.810;9.120;2023-03-24T15:23:39;2.30;;;1.60;;
209;SDS011;90;48.810;9.120;2023-03-24T15:26:10;3.03;;;1.50;;
209;SDS011;90;48.810;9.120;2023-03-24T15:28:37;1.93;;;1.40;;
209;SDS011;90;48.810;9.120;2023-03-24T15:31:04;2.47;;;1.50;;
209;SDS011;90;48.810;9.120;2023-03-24T15:33:37;2.10;;;1.40;;
209;SDS011;90;48.810;9.120;2023-03-24T15:36:11;2.10;;;1.60;;
209;SDS011;90;48.810;9.120;2023-03-24T15:38:43;2.67;;;1.53;;
209;SDS011;90;48.810;9.120;2023-03-24T15:41:11;5.20;;;1.53;;
209;SDS011;90;48.810;9.120;2023-03-24T15:43:40;2.00;;;1.60;;
209;SDS011;90;48.810;9.120;2023-03-24T15:46:18;2.03;;;1.50;;
209;SDS011;90;48.810;9.120;2023-03-24T15:48:48;2.10;;;1.50;;
209;SDS011;90;48.810;9.120;2023-03-24T15:51:16;2.57;;;1.70;;
209;SDS011;90;48.810;9.120;2023-03-24T15:53:44;2.50;;;1.50;;
209;SDS011;90;48.810;9.120;2023-03-24T15:56:17;2.93;;;1.50;;
209;SDS011;90;48.810;9.120;2023-03-24T15:58:50;1.90;;;1.60;;
209;SDS011;90;48.810;9.120;2023-03-24T16:01:20;2.00;;;1.40;;
209;SDS011;90;48.810;9.120;2023-03-24T16:03:55;2.93;;;2.30;;
209;SDS011;90;48.810;9.120;2023-03-24T16:06:26;2.77;;;1.50;;
209;SDS011;90;48.810;9.120;2023-03-24T16:08:59;2.20;;;1.70;;
209;SDS011;90;48.810;9.120;2023-03-24T16:11:29;2.90;;;1.40;;
209;SDS011;90;48.810;9.120;2023-03-24T16:13:55;3.03;;;1.53;;
209;SDS011;90;48.810;9.120;2023-03-24T16:16:24;1.90;;;1.60;;
209;SDS011;90;48.810;9.120;2023-03-24T16:18:53;2.10;;;1.60;;
209;SDS011;90;48.810;9.120;2023-03-24T16:21:23;2.77;;;1.50;;
209;SDS011;90;48.810;9.120;2023-03-24T16:23:54;1.80;;;1.40;;
209;SDS011;90;48.810;9.120;2023-03-24T16:26:22;2.40;;;1.57;;
209;SDS011;90;48.810;9.120;2023-03-24T16:28:50;2.20;;;1.47;;
209;SDS011;90;48.810;9.120;2023-03-24T16:31:19;3.07;;;1.43;;
209;SDS011;90;48.810;9.120;2023-03-24T16:33:48;2.40;;;1.70;;
209;SDS011;90;48.810;9.120;2023-03-24T16:36:16;4.00;;;1.40;;
209;SDS011;90;48.810;9.120;2023-03-24T16:38:46;2.10;;;1.60;;
209;SDS011;90;48.810;9.120;2023-03-24T16:41:14;1.90;;;1.40;;
209;SDS011;90;48.810;9.120;2023-03-24T16:43:41;5.73;;;1.70;;
209;SDS011;90;48.810;9.120;2023-03-24T16:46:12;1.90;;;1.40;;
209;SDS011;90;48.810;9.120;2023-03-24T16:48:40;2.10;;;1.80;;
209;SDS011;90;48.810;9.120;2023-03-24T16:51:09;3.07;;;1.70;;
209;SDS011;90;48.810;9.120;2023-03-24T16:53:39;1.90;;;1.40;;